sensor_id;sensor_type;location;lat;lon;timestamp;temperature;humidity
22956;DHT22;40888;48.148;11.526;2023-05-10T00:01:24;13.40;99.90
22956;DHT22;40888;48.148;11.526;2023-05-10T00:03:50;13.40;99.90
22956;DHT22;40888;48.148;11.526;2023-05-10T00:06:16;13.40;99.90
22956;DHT22;40888;48.148;11.526;2023-05-10T00:08:42;13.30;99.90
22956;DHT22;40888;48.148;11.526;2023-05-10T00:11:08;13.20;99.90
22956;DHT22;40888;48.148;11.526;2023-05-10T00:13:33;13.30;99.90
22956;DHT22;40888;48.148;11.526;2023-05-10T00:15:59;13.20;99.90
22956;DHT22;40888;48.148;11.526;2023-05-10T00:18:25;13.10;99.90
22956;DHT22;40888;48.148;11.526;2023-05-10T00:20:51;13.30;99.90
22956;DHT22;40888;48.148;11.526;2023-05-10T00:23:16;13.20;99.90
22956;DHT22;40888;48.148;11.526;2023-05-10T00:25:42;13.20;99.90
22956;DHT22;40888;48.148;11.526;2023-05-10T00:28:08;13.10;99.90
22956;DHT22;40888;48.148;11.526;2023-05-10T00:30:34;13.10;99.90
22956;DHT22;40888;48.148;11.526;2023-05-10T00:32:59;13.10;99.90
22956;DHT22;40888;48.148;11.526;2023-05-10T00:35:25;13.10;99.90
22956;DHT22;40888;48.148;11.526;2023-05-10T00:37:51;13.20;99.90
22956;DHT22;40888;48.148;11.526;2023-05-10T00:40:17;13.20;99.90
22956;DHT22;40888;48.148;11.526;2023-05-10T00:42:43;13.20;99.90
22956;DHT22;40888;48.148;11.526;2023-05-10T00:45:08;13.10;99.90
22956;DHT22;40888;48.148;11.526;2023-05-10T00:47:35;13.00;99.90
22956;DHT22;40888;48.148;11.526;2023-05-10T00:50:01;13.10;99.90
22956;DHT22;40888;48.148;11.526;2023-05-10T00:52:28;13.00;99.90
22956;DHT22;40888;48.148;11.526;2023-05-10T00:54:54;13.00;99.90
22956;DHT22;40888;48.148;11.526;2023-05-10T00:57:21;13.10;99.90
22956;DHT22;40888;48.148;11.526;2023-05-10T00:59:46;13.10;99.90
22956;DHT22;40888;48.148;11.526;2023-05-10T01:02:13;13.10;99.90
22956;DHT22;40888;48.148;11.526;2023-05-10T01:04:39;13.20;99.90
22956;DHT22;40888;48.148;11.526;2023-05-10T01:07:05;13.10;99.90
22956;DHT22;40888;48.148;11.526;2023-05-10T01:09:31;13.00;99.90
22956;DHT22;40888;48.148;11.526;2023-05-10T01:11:57;12.90;99.90
22956;DHT22;40888;48.148;11.526;2023-05-10T01:14:24;13.00;99.90
22956;DHT22;40888;48.148;11.526;2023-05-10T01:16:50;13.00;99.90
22956;DHT22;40888;48.148;11.526;2023-05-10T01:19:27;12.90;99.90
22956;DHT22;40888;48.148;11.526;2023-05-10T01:25:04;12.90;99.90
22956;DHT22;40888;48.148;11.526;2023-05-10T01:33:41;13.00;99.90
22956;DHT22;40888;48.148;11.526;2023-05-10T01:36:23;13.00;99.90
22956;DHT22;40888;48.148;11.526;2023-05-10T01:39:02;13.00;99.90
22956;DHT22;40888;48.148;11.526;2023-05-10T01:46:49;13.00;99.90
22956;DHT22;40888;48.148;11.526;2023-05-10T01:49:26;12.90;99.90
22956;DHT22;40888;48.148;11.526;2023-05-10T01:51:56;12.90;99.90
22956;DHT22;40888;48.148;11.526;2023-05-10T01:54:24;12.90;99.90
22956;DHT22;40888;48.148;11.526;2023-05-10T01:56:55;12.90;99.90
22956;DHT22;40888;48.148;11.526;2023-05-10T01:59:22;12.90;99.90
22956;DHT22;40888;48.148;11.526;2023-05-10T02:01:51;12.90;99.90
22956;DHT22;40888;48.148;11.526;2023-05-10T02:04:18;12.80;99.90
22956;DHT22;40888;48.148;11.526;2023-05-10T02:06:46;12.90;99.90
22956;DHT22;40888;48.148;11.526;2023-05-10T02:09:14;12.80;99.90
22956;DHT22;40888;48.148;11.526;2023-05-10T02:11:43;12.80;99.90
22956;DHT22;40888;48.148;11.526;2023-05-10T02:14:10;12.90;99.90
22956;DHT22;40888;48.148;11.526;2023-05-10T02:16:38;12.80;99.90
22956;DHT22;40888;48.148;11.526;2023-05-10T02:19:05;12.80;99.90
22956;DHT22;40888;48.148;11.526;2023-05-10T02:21:32;12.80;99.90
22956;DHT22;40888;48.148;11.526;2023-05-10T02:24:00;12.80;99.90
22956;DHT22;40888;48.148;11.526;2023-05-10T02:26:26;12.80;99.90
22956;DHT22;40888;48.148;11.526;2023-05-10T02:28:53;12.70;99.90
22956;DHT22;40888;48.148;11.526;2023-05-10T02:31:20;12.70;99.90
22956;DHT22;40888;48.148;11.526;2023-05-10T02:33:48;12.60;99.90
22956;DHT22;40888;48.148;11.526;2023-05-10T02:36:15;12.70;99.90
22956;DHT22;40888;48.148;11.526;2023-05-10T02:38:42;12.70;99.90
22956;DHT22;40888;48.148;11.526;2023-05-10T02:41:10;12.70;99.90
22956;DHT22;40888;48.148;11.526;2023-05-10T02:43:37;12.70;99.90
22956;DHT22;40888;48.148;11.526;2023-05-10T02:46:05;12.70;99.90
22956;DHT22;40888;48.148;11.526;2023-05-10T02:48:31;12.80;99.90
22956;DHT22;40888;48.148;11.526;2023-05-10T02:51:04;12.80;99.90
22956;DHT22;40888;48.148;11.526;2023-05-10T02:53:32;12.70;99.90
22956;DHT22;40888;48.148;11.526;2023-05-10T02:56:04;12.70;99.90
22956;DHT22;40888;48.148;11.526;2023-05-10T02:58:32;12.70;99.90
22956;DHT22;40888;48.148;11.526;2023-05-10T03:00:59;12.80;99.90
22956;DHT22;40888;48.148;11.526;2023-05-10T03:03:25;12.70;99.90
22956;DHT22;40888;48.148;11.526;2023-05-10T03:05:51;12.80;99.90
22956;DHT22;40888;48.148;11.526;2023-05-10T03:08:22;12.80;99.90
22956;DHT22;40888;48.148;11.526;2023-05-10T03:11:12;12.80;99.90
22956;DHT22;40888;48.148;11.526;2023-05-10T03:14:03;12.80;99.90
22956;DHT22;40888;48.148;11.526;2023-05-10T03:16:44;12.70;99.90
22956;DHT22;40888;48.148;11.526;2023-05-10T03:22:08;12.80;99.90
22956;DHT22;40888;48.148;11.526;2023-05-10T03:24:35;12.80;99.90
22956;DHT22;40888;48.148;11.526;2023-05-10T03:27:02;12.70;99.90
22956;DHT22;40888;48.148;11.526;2023-05-10T03:29:30;12.70;99.90
22956;DHT22;40888;48.148;11.526;2023-05-10T03:31:59;12.80;99.90
22956;DHT22;40888;48.148;11.526;2023-05-10T03:34:26;12.60;99.90
22956;DHT22;40888;48.148;11.526;2023-05-10T03:36:51;12.70;99.90
22956;DHT22;40888;48.148;11.526;2023-05-10T03:39:17;12.70;99.90
22956;DHT22;40888;48.148;11.526;2023-05-10T03:41:43;12.80;99.90
22956;DHT22;40888;48.148;11.526;2023-05-10T03:44:09;12.70;99.90
22956;DHT22;40888;48.148;11.526;2023-05-10T03:46:34;12.80;99.90
22956;DHT22;40888;48.148;11.526;2023-05-10T03:49:00;12.80;99.90
22956;DHT22;40888;48.148;11.526;2023-05-10T03:51:26;12.70;99.90
22956;DHT22;40888;48.148;11.526;2023-05-10T03:53:54;12.70;99.90
22956;DHT22;40888;48.148;11.526;2023-05-10T03:56:20;12.70;99.90
22956;DHT22;40888;48.148;11.526;2023-05-10T03:58:46;12.70;99.90
22956;DHT22;40888;48.148;11.526;2023-05-10T04:01:12;12.70;99.90
22956;DHT22;40888;48.148;11.526;2023-05-10T04:03:38;12.70;99.90
22956;DHT22;40888;48.148;11.526;2023-05-10T04:06:04;12.60;99.90
22956;DHT22;40888;48.148;11.526;2023-05-10T04:08:31;12.70;99.90
22956;DHT22;40888;48.148;11.526;2023-05-10T04:11:10;12.60;99.90
22956;DHT22;40888;48.148;11.526;2023-05-10T04:13:37;12.60;99.90
22956;DHT22;40888;48.148;11.526;2023-05-10T04:16:04;12.70;99.90
22956;DHT22;40888;48.148;11.526;2023-05-10T04:18:30;12.70;99.90
22956;DHT22;40888;48.148;11.526;2023-05-10T04:20:55;12.80;99.90
22956;DHT22;40888;48.148;11.526;2023-05-10T04:23:21;12.70;99.90
22956;DHT22;40888;48.148;11.526;2023-05-10T04:25:47;12.70;99.90
22956;DHT22;40888;48.148;11.526;2023-05-10T04:28:13;12.70;99.90
22956;DHT22;40888;48.148;11.526;2023-05-10T04:30:38;12.80;99.90
22956;DHT22;40888;48.148;11.526;2023-05-10T04:33:04;12.80;99.90
22956;DHT22;40888;48.148;11.526;2023-05-10T04:35:30;12.80;99.90
22956;DHT22;40888;48.148;11.526;2023-05-10T04:37:56;12.70;99.90
22956;DHT22;40888;48.148;11.526;2023-05-10T04:40:21;12.70;99.90
22956;DHT22;40888;48.148;11.526;2023-05-10T04:42:47;12.70;99.90
22956;DHT22;40888;48.148;11.526;2023-05-10T04:45:13;12.70;99.90
22956;DHT22;40888;48.148;11.526;2023-05-10T04:47:40;12.80;99.90
22956;DHT22;40888;48.148;11.526;2023-05-10T04:50:06;12.70;99.90
22956;DHT22;40888;48.148;11.526;2023-05-10T04:52:32;12.50;99.90
22956;DHT22;40888;48.148;11.526;2023-05-10T04:54:58;12.30;99.90
22956;DHT22;40888;48.148;11.526;2023-05-10T04:57:24;12.30;99.90
22956;DHT22;40888;48.148;11.526;2023-05-10T04:59:50;12.30;99.90
22956;DHT22;40888;48.148;11.526;2023-05-10T05:02:15;12.30;99.90
22956;DHT22;40888;48.148;11.526;2023-05-10T05:04:41;12.30;99.90
22956;DHT22;40888;48.148;11.526;2023-05-10T05:07:07;12.30;99.90
22956;DHT22;40888;48.148;11.526;2023-05-10T05:09:32;12.20;99.90
22956;DHT22;40888;48.148;11.526;2023-05-10T05:11:58;12.20;99.90
22956;DHT22;40888;48.148;11.526;2023-05-10T05:14:24;12.10;99.90
22956;DHT22;40888;48.148;11.526;2023-05-10T05:16:53;12.20;99.90
22956;DHT22;40888;48.148;11.526;2023-05-10T05:19:19;12.10;99.90
22956;DHT22;40888;48.148;11.526;2023-05-10T05:21:46;12.10;99.90
22956;DHT22;40888;48.148;11.526;2023-05-10T05:24:11;12.10;99.90
22956;DHT22;40888;48.148;11.526;2023-05-10T05:26:38;12.10;99.90
22956;DHT22;40888;48.148;11.526;2023-05-10T05:29:05;12.10;99.90
22956;DHT22;40888;48.148;11.526;2023-05-10T05:31:30;12.00;99.90
22956;DHT22;40888;48.148;11.526;2023-05-10T05:33:56;12.10;99.90
22956;DHT22;40888;48.148;11.526;2023-05-10T05:36:22;12.00;99.90
22956;DHT22;40888;48.148;11.526;2023-05-10T05:38:48;12.10;99.90
22956;DHT22;40888;48.148;11.526;2023-05-10T05:41:13;12.10;99.90
22956;DHT22;40888;48.148;11.526;2023-05-10T05:43:39;12.00;99.90
22956;DHT22;40888;48.148;11.526;2023-05-10T05:46:05;12.00;99.90
22956;DHT22;40888;48.148;11.526;2023-05-10T05:48:31;11.90;99.90
22956;DHT22;40888;48.148;11.526;2023-05-10T05:50:57;11.80;99.90
22956;DHT22;40888;48.148;11.526;2023-05-10T05:53:23;11.90;99.90
22956;DHT22;40888;48.148;11.526;2023-05-10T05:55:56;11.90;99.90
22956;DHT22;40888;48.148;11.526;2023-05-10T05:58:23;11.90;99.90
22956;DHT22;40888;48.148;11.526;2023-05-10T06:00:50;11.80;99.90
22956;DHT22;40888;48.148;11.526;2023-05-10T06:03:16;11.80;99.90
22956;DHT22;40888;48.148;11.526;2023-05-10T06:05:41;11.90;99.90
22956;DHT22;40888;48.148;11.526;2023-05-10T06:08:07;12.00;99.90
22956;DHT22;40888;48.148;11.526;2023-05-10T06:10:33;12.00;99.90
22956;DHT22;40888;48.148;11.526;2023-05-10T06:12:59;12.00;99.90
22956;DHT22;40888;48.148;11.526;2023-05-10T06:15:25;12.10;99.90
22956;DHT22;40888;48.148;11.526;2023-05-10T06:17:51;12.00;99.90
22956;DHT22;40888;48.148;11.526;2023-05-10T06:20:17;12.00;99.90
22956;DHT22;40888;48.148;11.526;2023-05-10T06:22:43;12.10;99.90
22956;DHT22;40888;48.148;11.526;2023-05-10T06:25:09;12.20;99.90
22956;DHT22;40888;48.148;11.526;2023-05-10T06:27:35;12.20;99.90
22956;DHT22;40888;48.148;11.526;2023-05-10T06:30:01;12.20;99.90
22956;DHT22;40888;48.148;11.526;2023-05-10T06:32:28;12.20;99.90
22956;DHT22;40888;48.148;11.526;2023-05-10T06:34:53;12.30;99.90
22956;DHT22;40888;48.148;11.526;2023-05-10T06:37:19;12.30;99.90
22956;DHT22;40888;48.148;11.526;2023-05-10T06:39:45;12.30;99.90
22956;DHT22;40888;48.148;11.526;2023-05-10T06:42:11;12.30;99.90
22956;DHT22;40888;48.148;11.526;2023-05-10T06:44:37;12.30;99.90
22956;DHT22;40888;48.148;11.526;2023-05-10T06:47:02;12.40;99.90
22956;DHT22;40888;48.148;11.526;2023-05-10T06:49:28;12.40;99.90
22956;DHT22;40888;48.148;11.526;2023-05-10T06:51:55;12.40;99.90
22956;DHT22;40888;48.148;11.526;2023-05-10T06:54:21;12.40;99.90
22956;DHT22;40888;48.148;11.526;2023-05-10T06:56:47;12.30;99.90
22956;DHT22;40888;48.148;11.526;2023-05-10T06:59:12;12.40;99.90
22956;DHT22;40888;48.148;11.526;2023-05-10T07:01:39;12.40;99.90
22956;DHT22;40888;48.148;11.526;2023-05-10T07:04:05;12.50;99.90
22956;DHT22;40888;48.148;11.526;2023-05-10T07:06:30;12.50;99.90
22956;DHT22;40888;48.148;11.526;2023-05-10T07:08:57;12.50;99.90
22956;DHT22;40888;48.148;11.526;2023-05-10T07:11:23;12.60;99.90
22956;DHT22;40888;48.148;11.526;2023-05-10T07:13:49;12.60;99.90
22956;DHT22;40888;48.148;11.526;2023-05-10T07:16:14;12.70;99.90
22956;DHT22;40888;48.148;11.526;2023-05-10T07:18:40;12.80;99.90
22956;DHT22;40888;48.148;11.526;2023-05-10T07:21:06;12.90;99.90
22956;DHT22;40888;48.148;11.526;2023-05-10T07:23:32;13.00;99.90
22956;DHT22;40888;48.148;11.526;2023-05-10T07:25:57;13.10;99.90
22956;DHT22;40888;48.148;11.526;2023-05-10T07:28:23;13.10;99.90
22956;DHT22;40888;48.148;11.526;2023-05-10T07:30:52;13.30;99.90
22956;DHT22;40888;48.148;11.526;2023-05-10T07:33:18;13.40;99.90
22956;DHT22;40888;48.148;11.526;2023-05-10T07:35:43;13.30;99.90
22956;DHT22;40888;48.148;11.526;2023-05-10T07:38:09;13.40;99.90
22956;DHT22;40888;48.148;11.526;2023-05-10T07:40:36;13.40;99.90
22956;DHT22;40888;48.148;11.526;2023-05-10T07:43:02;13.40;99.90
22956;DHT22;40888;48.148;11.526;2023-05-10T07:45:28;13.50;99.90
22956;DHT22;40888;48.148;11.526;2023-05-10T07:47:54;13.50;99.90
22956;DHT22;40888;48.148;11.526;2023-05-10T07:50:20;13.60;99.90
22956;DHT22;40888;48.148;11.526;2023-05-10T07:52:47;13.70;99.90
22956;DHT22;40888;48.148;11.526;2023-05-10T07:55:13;13.80;99.90
22956;DHT22;40888;48.148;11.526;2023-05-10T07:57:39;13.80;99.90
22956;DHT22;40888;48.148;11.526;2023-05-10T08:00:06;13.90;99.90
22956;DHT22;40888;48.148;11.526;2023-05-10T08:02:34;13.90;99.90
22956;DHT22;40888;48.148;11.526;2023-05-10T08:05:00;14.00;99.90
22956;DHT22;40888;48.148;11.526;2023-05-10T08:07:26;14.10;99.90
22956;DHT22;40888;48.148;11.526;2023-05-10T08:09:51;14.10;99.90
22956;DHT22;40888;48.148;11.526;2023-05-10T08:12:17;14.10;99.90
22956;DHT22;40888;48.148;11.526;2023-05-10T08:14:43;14.00;99.90
22956;DHT22;40888;48.148;11.526;2023-05-10T08:17:08;14.00;99.90
22956;DHT22;40888;48.148;11.526;2023-05-10T08:19:34;14.00;99.90
22956;DHT22;40888;48.148;11.526;2023-05-10T08:22:00;14.00;99.90
22956;DHT22;40888;48.148;11.526;2023-05-10T08:24:26;14.10;99.90
22956;DHT22;40888;48.148;11.526;2023-05-10T08:26:51;14.00;99.90
22956;DHT22;40888;48.148;11.526;2023-05-10T08:29:19;13.90;99.90
22956;DHT22;40888;48.148;11.526;2023-05-10T08:31:45;13.80;99.90
22956;DHT22;40888;48.148;11.526;2023-05-10T08:34:11;13.80;99.90
22956;DHT22;40888;48.148;11.526;2023-05-10T08:36:37;13.80;99.90
22956;DHT22;40888;48.148;11.526;2023-05-10T08:39:02;13.60;99.90
22956;DHT22;40888;48.148;11.526;2023-05-10T08:41:30;13.60;99.90
22956;DHT22;40888;48.148;11.526;2023-05-10T08:43:59;13.70;99.90
22956;DHT22;40888;48.148;11.526;2023-05-10T08:46:30;13.70;99.90
22956;DHT22;40888;48.148;11.526;2023-05-10T08:49:01;13.80;99.90
22956;DHT22;40888;48.148;11.526;2023-05-10T08:51:29;13.70;99.90
22956;DHT22;40888;48.148;11.526;2023-05-10T08:53:59;13.70;99.90
22956;DHT22;40888;48.148;11.526;2023-05-10T08:56:26;13.80;99.90
22956;DHT22;40888;48.148;11.526;2023-05-10T08:58:51;13.70;99.90
22956;DHT22;40888;48.148;11.526;2023-05-10T09:01:18;13.80;99.90
22956;DHT22;40888;48.148;11.526;2023-05-10T09:03:46;13.80;99.90
22956;DHT22;40888;48.148;11.526;2023-05-10T09:06:13;13.70;99.90
22956;DHT22;40888;48.148;11.526;2023-05-10T09:08:41;13.90;99.90
22956;DHT22;40888;48.148;11.526;2023-05-10T09:11:07;14.00;99.90
22956;DHT22;40888;48.148;11.526;2023-05-10T09:13:35;14.30;99.90
22956;DHT22;40888;48.148;11.526;2023-05-10T09:16:01;14.50;99.90
22956;DHT22;40888;48.148;11.526;2023-05-10T09:18:28;14.60;99.90
22956;DHT22;40888;48.148;11.526;2023-05-10T09:20:54;14.80;99.90
22956;DHT22;40888;48.148;11.526;2023-05-10T09:23:20;14.90;99.90
22956;DHT22;40888;48.148;11.526;2023-05-10T09:25:46;14.90;99.90
22956;DHT22;40888;48.148;11.526;2023-05-10T09:28:12;14.80;99.90
22956;DHT22;40888;48.148;11.526;2023-05-10T09:30:38;14.70;99.90
22956;DHT22;40888;48.148;11.526;2023-05-10T09:33:04;14.70;99.90
22956;DHT22;40888;48.148;11.526;2023-05-10T09:35:32;14.70;99.90
22956;DHT22;40888;48.148;11.526;2023-05-10T09:38:02;14.60;99.90
22956;DHT22;40888;48.148;11.526;2023-05-10T09:40:29;14.60;99.90
22956;DHT22;40888;48.148;11.526;2023-05-10T09:42:58;14.60;99.90
22956;DHT22;40888;48.148;11.526;2023-05-10T09:45:26;14.80;99.90
22956;DHT22;40888;48.148;11.526;2023-05-10T09:47:52;14.70;99.90
22956;DHT22;40888;48.148;11.526;2023-05-10T09:50:19;14.80;99.90
22956;DHT22;40888;48.148;11.526;2023-05-10T09:55:21;14.90;99.90
22956;DHT22;40888;48.148;11.526;2023-05-10T09:57:47;15.00;99.90
22956;DHT22;40888;48.148;11.526;2023-05-10T10:00:18;15.00;99.90
22956;DHT22;40888;48.148;11.526;2023-05-10T10:02:46;15.10;99.90
22956;DHT22;40888;48.148;11.526;2023-05-10T10:05:12;15.10;99.90
22956;DHT22;40888;48.148;11.526;2023-05-10T10:07:38;15.10;99.90
22956;DHT22;40888;48.148;11.526;2023-05-10T10:10:05;15.10;99.90
22956;DHT22;40888;48.148;11.526;2023-05-10T10:12:31;15.10;99.90
22956;DHT22;40888;48.148;11.526;2023-05-10T10:14:57;15.30;99.90
22956;DHT22;40888;48.148;11.526;2023-05-10T10:17:25;15.40;99.90
22956;DHT22;40888;48.148;11.526;2023-05-10T10:19:53;15.40;99.90
22956;DHT22;40888;48.148;11.526;2023-05-10T10:22:20;15.50;99.90
22956;DHT22;40888;48.148;11.526;2023-05-10T10:24:46;15.60;99.90
22956;DHT22;40888;48.148;11.526;2023-05-10T10:27:28;15.40;99.90
22956;DHT22;40888;48.148;11.526;2023-05-10T10:35:52;15.70;99.90
22956;DHT22;40888;48.148;11.526;2023-05-10T10:38:18;15.90;99.90
22956;DHT22;40888;48.148;11.526;2023-05-10T10:40:44;16.00;99.90
22956;DHT22;40888;48.148;11.526;2023-05-10T10:43:24;16.10;99.90
22956;DHT22;40888;48.148;11.526;2023-05-10T10:46:16;15.90;99.90
22956;DHT22;40888;48.148;11.526;2023-05-10T10:48:50;15.80;99.90
22956;DHT22;40888;48.148;11.526;2023-05-10T10:51:17;15.80;99.90
22956;DHT22;40888;48.148;11.526;2023-05-10T10:53:43;15.80;99.90
22956;DHT22;40888;48.148;11.526;2023-05-10T10:56:11;15.70;99.90
22956;DHT22;40888;48.148;11.526;2023-05-10T10:58:39;15.40;99.90
22956;DHT22;40888;48.148;11.526;2023-05-10T11:03:35;15.00;99.90
22956;DHT22;40888;48.148;11.526;2023-05-10T11:06:01;15.00;99.90
22956;DHT22;40888;48.148;11.526;2023-05-10T11:08:29;15.00;99.90
22956;DHT22;40888;48.148;11.526;2023-05-10T11:16:13;14.80;99.90
22956;DHT22;40888;48.148;11.526;2023-05-10T11:18:39;14.80;99.90
22956;DHT22;40888;48.148;11.526;2023-05-10T11:21:08;14.80;99.90
22956;DHT22;40888;48.148;11.526;2023-05-10T11:26:09;14.80;99.90
22956;DHT22;40888;48.148;11.526;2023-05-10T11:28:47;14.70;99.90
22956;DHT22;40888;48.148;11.526;2023-05-10T11:31:14;14.60;99.90
22956;DHT22;40888;48.148;11.526;2023-05-10T11:36:35;13.80;99.90
22956;DHT22;40888;48.148;11.526;2023-05-10T11:39:01;13.60;99.90
22956;DHT22;40888;48.148;11.526;2023-05-10T11:41:29;13.50;99.90
22956;DHT22;40888;48.148;11.526;2023-05-10T11:43:56;13.50;99.90
22956;DHT22;40888;48.148;11.526;2023-05-10T11:46:26;13.20;99.90
22956;DHT22;40888;48.148;11.526;2023-05-10T11:49:02;13.10;99.90
22956;DHT22;40888;48.148;11.526;2023-05-10T11:51:35;13.10;99.90
22956;DHT22;40888;48.148;11.526;2023-05-10T11:54:08;13.10;99.90
22956;DHT22;40888;48.148;11.526;2023-05-10T11:56:35;13.00;99.90
22956;DHT22;40888;48.148;11.526;2023-05-10T11:59:01;12.90;99.90
22956;DHT22;40888;48.148;11.526;2023-05-10T12:01:28;12.80;99.90
22956;DHT22;40888;48.148;11.526;2023-05-10T12:03:55;12.70;99.90
22956;DHT22;40888;48.148;11.526;2023-05-10T12:06:27;12.70;99.90
22956;DHT22;40888;48.148;11.526;2023-05-10T12:08:53;12.40;99.90
22956;DHT22;40888;48.148;11.526;2023-05-10T12:11:19;12.30;99.90
22956;DHT22;40888;48.148;11.526;2023-05-10T12:13:47;12.30;99.90
22956;DHT22;40888;48.148;11.526;2023-05-10T12:16:21;12.30;99.90
22956;DHT22;40888;48.148;11.526;2023-05-10T12:18:51;12.20;99.90
22956;DHT22;40888;48.148;11.526;2023-05-10T12:21:19;12.10;99.90
22956;DHT22;40888;48.148;11.526;2023-05-10T12:23:46;12.10;99.90
22956;DHT22;40888;48.148;11.526;2023-05-10T12:26:12;12.00;99.90
22956;DHT22;40888;48.148;11.526;2023-05-10T12:28:38;12.00;99.90
22956;DHT22;40888;48.148;11.526;2023-05-10T12:31:07;12.00;99.90
22956;DHT22;40888;48.148;11.526;2023-05-10T12:33:42;12.10;99.90
22956;DHT22;40888;48.148;11.526;2023-05-10T12:36:09;12.00;99.90
22956;DHT22;40888;48.148;11.526;2023-05-10T12:38:40;12.00;99.90
22956;DHT22;40888;48.148;11.526;2023-05-10T12:41:10;12.00;99.90
22956;DHT22;40888;48.148;11.526;2023-05-10T12:43:37;12.00;99.90
22956;DHT22;40888;48.148;11.526;2023-05-10T12:46:10;11.90;99.90
22956;DHT22;40888;48.148;11.526;2023-05-10T12:48:38;12.00;99.90
22956;DHT22;40888;48.148;11.526;2023-05-10T12:51:04;12.00;99.90
22956;DHT22;40888;48.148;11.526;2023-05-10T12:53:30;12.10;99.90
22956;DHT22;40888;48.148;11.526;2023-05-10T12:55:57;12.20;99.90
22956;DHT22;40888;48.148;11.526;2023-05-10T12:58:22;12.30;99.90
22956;DHT22;40888;48.148;11.526;2023-05-10T13:00:48;12.20;99.90
22956;DHT22;40888;48.148;11.526;2023-05-10T13:03:15;12.30;99.90
22956;DHT22;40888;48.148;11.526;2023-05-10T13:05:41;12.30;99.90
22956;DHT22;40888;48.148;11.526;2023-05-10T13:08:07;12.30;99.90
22956;DHT22;40888;48.148;11.526;2023-05-10T13:10:32;12.30;99.90
22956;DHT22;40888;48.148;11.526;2023-05-10T13:12:58;12.20;99.90
22956;DHT22;40888;48.148;11.526;2023-05-10T13:15:25;12.20;99.90
22956;DHT22;40888;48.148;11.526;2023-05-10T13:17:51;12.30;99.90
22956;DHT22;40888;48.148;11.526;2023-05-10T13:20:17;12.30;99.90
22956;DHT22;40888;48.148;11.526;2023-05-10T13:22:43;12.30;99.90
22956;DHT22;40888;48.148;11.526;2023-05-10T13:25:10;12.30;99.90
22956;DHT22;40888;48.148;11.526;2023-05-10T13:27:36;12.20;99.90
22956;DHT22;40888;48.148;11.526;2023-05-10T13:30:03;12.30;99.90
22956;DHT22;40888;48.148;11.526;2023-05-10T13:32:29;12.20;99.90
22956;DHT22;40888;48.148;11.526;2023-05-10T13:34:55;12.10;99.90
22956;DHT22;40888;48.148;11.526;2023-05-10T13:37:21;12.10;99.90
22956;DHT22;40888;48.148;11.526;2023-05-10T13:39:47;12.10;99.90
22956;DHT22;40888;48.148;11.526;2023-05-10T13:42:13;12.00;99.90
22956;DHT22;40888;48.148;11.526;2023-05-10T13:44:39;12.00;99.90
22956;DHT22;40888;48.148;11.526;2023-05-10T13:47:05;11.90;99.90
22956;DHT22;40888;48.148;11.526;2023-05-10T13:49:31;11.90;99.90
22956;DHT22;40888;48.148;11.526;2023-05-10T13:51:57;11.80;99.90
22956;DHT22;40888;48.148;11.526;2023-05-10T13:54:23;11.80;99.90
22956;DHT22;40888;48.148;11.526;2023-05-10T13:56:49;11.80;99.90
22956;DHT22;40888;48.148;11.526;2023-05-10T13:59:15;11.80;99.90
22956;DHT22;40888;48.148;11.526;2023-05-10T14:01:41;11.90;99.90
22956;DHT22;40888;48.148;11.526;2023-05-10T14:04:08;11.80;99.90
22956;DHT22;40888;48.148;11.526;2023-05-10T14:06:38;11.80;99.90
22956;DHT22;40888;48.148;11.526;2023-05-10T14:09:04;11.70;99.90
22956;DHT22;40888;48.148;11.526;2023-05-10T14:11:29;11.70;99.90
22956;DHT22;40888;48.148;11.526;2023-05-10T14:13:55;11.80;99.90
22956;DHT22;40888;48.148;11.526;2023-05-10T14:16:21;11.80;99.90
22956;DHT22;40888;48.148;11.526;2023-05-10T14:18:47;11.80;99.90
22956;DHT22;40888;48.148;11.526;2023-05-10T14:21:13;11.80;99.90
22956;DHT22;40888;48.148;11.526;2023-05-10T14:23:38;11.70;99.90
22956;DHT22;40888;48.148;11.526;2023-05-10T14:26:04;11.70;99.90
22956;DHT22;40888;48.148;11.526;2023-05-10T14:28:30;11.70;99.90
22956;DHT22;40888;48.148;11.526;2023-05-10T14:30:56;11.70;99.90
22956;DHT22;40888;48.148;11.526;2023-05-10T14:33:22;11.70;99.90
22956;DHT22;40888;48.148;11.526;2023-05-10T14:35:48;11.80;99.90
22956;DHT22;40888;48.148;11.526;2023-05-10T14:38:14;11.80;99.90
22956;DHT22;40888;48.148;11.526;2023-05-10T14:40:40;11.70;99.90
22956;DHT22;40888;48.148;11.526;2023-05-10T14:43:05;11.70;99.90
22956;DHT22;40888;48.148;11.526;2023-05-10T14:45:31;11.70;99.90
22956;DHT22;40888;48.148;11.526;2023-05-10T14:47:57;11.90;99.90
22956;DHT22;40888;48.148;11.526;2023-05-10T14:50:23;11.80;99.90
22956;DHT22;40888;48.148;11.526;2023-05-10T14:52:49;11.70;99.90
22956;DHT22;40888;48.148;11.526;2023-05-10T14:55:15;11.70;99.90
22956;DHT22;40888;48.148;11.526;2023-05-10T14:57:41;11.50;99.90
22956;DHT22;40888;48.148;11.526;2023-05-10T15:00:07;11.50;99.90
22956;DHT22;40888;48.148;11.526;2023-05-10T15:02:35;11.50;99.90
22956;DHT22;40888;48.148;11.526;2023-05-10T15:05:00;11.60;99.90
22956;DHT22;40888;48.148;11.526;2023-05-10T15:07:26;11.50;99.90
22956;DHT22;40888;48.148;11.526;2023-05-10T15:09:52;11.50;99.90
22956;DHT22;40888;48.148;11.526;2023-05-10T15:12:18;11.60;99.90
22956;DHT22;40888;48.148;11.526;2023-05-10T15:14:44;11.60;99.90
22956;DHT22;40888;48.148;11.526;2023-05-10T15:17:10;11.60;99.90
22956;DHT22;40888;48.148;11.526;2023-05-10T15:19:36;11.50;99.90
22956;DHT22;40888;48.148;11.526;2023-05-10T15:22:03;11.50;99.90
22956;DHT22;40888;48.148;11.526;2023-05-10T15:24:29;11.40;99.90
22956;DHT22;40888;48.148;11.526;2023-05-10T15:26:55;11.50;99.90
22956;DHT22;40888;48.148;11.526;2023-05-10T15:29:20;11.40;99.90
22956;DHT22;40888;48.148;11.526;2023-05-10T15:31:50;11.50;99.90
22956;DHT22;40888;48.148;11.526;2023-05-10T15:34:17;11.50;99.90
22956;DHT22;40888;48.148;11.526;2023-05-10T15:36:43;11.50;99.90
22956;DHT22;40888;48.148;11.526;2023-05-10T15:39:10;11.40;99.90
22956;DHT22;40888;48.148;11.526;2023-05-10T15:41:35;11.40;99.90
22956;DHT22;40888;48.148;11.526;2023-05-10T15:44:01;11.40;99.90
22956;DHT22;40888;48.148;11.526;2023-05-10T15:46:28;11.50;99.90
22956;DHT22;40888;48.148;11.526;2023-05-10T15:48:54;11.50;99.90
22956;DHT22;40888;48.148;11.526;2023-05-10T15:51:20;11.50;99.90
22956;DHT22;40888;48.148;11.526;2023-05-10T15:53:46;11.40;99.90